Tiempo atmosférico en la estación meteorológica de Villalón De Campos, Valladolid (763 m.)



Fecha
DESCASC
Temp. máxima en grados centígrados (hora)
DESCASC
Temp. mínima en grados centígrados (hora)
DESCASC
Temp. media en grados centígrados
DESCASC
Racha de viento máxima en m/sg (hora)
DESCASC
Velocidad máxima media en intervalos de 10 minutos(hora)
DESCASC
Precipitaciones diarias en mm
DESCASC
Precipitaciones de 00:00 a 06:00 en mm
DESCASC
Precipitaciones de 06:00 a 12:00 en mm
DESCASC
Precipitaciones de 12:00 a 18:00 en mm
DESCASC
Precipitaciones de 18:00 a 24:00 en mm
DESCASC
20-01-2020 2.7 (13:10) -0.4 (00:00) 1.2 22.5 (11:10) 10.83 (11:10) 0 0 0 0 0
19-01-2020 7.4 (14:10) 0.4 (00:00) 3.9 20.56 (15:10) 12.22 (15:50) 0 0 0 0 0
21-01-2020 6.1 (13:20) 0.2 (00:00) 3.1 19.17 (16:10) 10 (12:20) 0 0 0 0 0
18-01-2020 10.1 (17:10) 2.1 (00:00) 6.1 18.06 (15:50) 11.94 (15:50) 4.2 0 0.2 3.8 0.2
16-01-2020 12.8 (15:20) 6.2 (00:00) 9.5 15.28 (23:10) 11.11 (22:40) 0 0 0 0 0
15-01-2020 11.6 (16:00) 5.7 (00:00) 8.7 14.72 (11:10) 9.44 (10:20) 0.2 0 0 0 0.2
17-01-2020 8.4 (16:30) 2.9 (00:00) 5.6 14.44 (04:50) 9.72 (04:40) 0.2 0.2 0 0 0
09-01-2020 8.9 (15:50) -2 (-00:0) 3.4 12.78 (16:00) 9.72 (16:20) 0 0 0 0 0
22-01-2020 9.8 (16:10) 2.3 (00:00) 6.1 12.5 (04:10) 6.67 (01:20) 0.2 0.2 0 0 0
14-01-2020 8.5 (16:00) -0.6 (-00:0) 3.9 11.39 (14:30) 8.89 (14:30) 0 0 0 0 0
10-01-2020 10.4 (17:30) -0.5 (-00:0) 4.9 8.61 (01:30) 7.22 (01:30) 0 0 0 0 0
23-01-2020 7.9 (15:40) -0.4 (00:00) 3.8 6.67 (12:10) 3.33 (08:50) 0 0 0 0 0
13-01-2020 1.4 (17:40) -3.4 (-00:0) -1 6.39 (16:00) 4.44 (17:30) 0 0 0 0 0
04-01-2020 6.6 (14:30) -0.2 (00:00) 3.2 5.28 (15:10) 3.33 (17:20) 0 0 0 0 0
25-01-2020 7.7 (15:20) 0.1 (00:00) 3.9 5 (07:30) 2.5 (11:40) 0.8 0 0.2 0.2 0.4
08-01-2020 8.8 (17:40) -3.2 (-00:0) 2.8 4.72 (16:10) 3.06 (16:00) 0 0 0 0 0
24-01-2020 8.8 (15:00) 1.8 (00:00) 5.3 4.72 (16:20) 3.33 (16:20) 0.2 0 0 0 0.2
11-01-2020 9.8 (16:30) -3.1 (-00:0) 3.4 4.44 (19:10) 2.5 (19:00) 0 0 0 0 0
03-01-2020 3.4 (15:00) -2.4 (-00:0) 0.5 4.44 (03:50) 3.06 (03:50) 0 0 0 0 0
27-12-2019 3.1 (15:00) -1.4 (-00:0) 0.8 4.17 (15:50) 2.78 (03:50) 0 0 0 0 0
05-01-2020 6.7 (17:10) -1.9 (-00:0) 2.4 4.17 (20:10) 3.06 (20:20) 0 0 0 0 0
28-12-2019 10.9 (16:50) -3.2 (-00:0) 3.8 3.89 (03:40) 2.22 (04:00) 0 0 0 0 0
12-01-2020 0.6 (16:20) -3.3 (02:20) -1.3 3.33 (15:50) 1.94 (19:20) 0 0 0 0 0
06-01-2020 -0.1 (16:40) -2.8 (-00:0) -1.4 3.06 (22:20) 1.94 (18:00) 0 0 0 0 0
07-01-2020 1.2 (16:20) -3 (-00:0) -0.9 2.78 (00:10) 1.67 (00:50) 0 0 0 0 0
02-01-2020 0.4 (17:00) -4.8 (-00:0) -2.2 2.78 (18:50) 1.67 (19:00) 0 0 0 0 0
01-01-2020 1.6 (15:50) -4.3 (-00:0) -1.4 2.5 (19:20) 1.39 (16:50) 0 0 0 0 0
29-12-2019 13.7 (17:00) -2.5 (-00:0) 5.6 2.5 (13:10) 1.67 (13:10) 0 0 0 0 0
31-12-2019 3.8 (15:00) -3.6 (-00:0) 0.1 2.22 (12:00) 1.39 (11:50) 0 0 0 0 0
30-12-2019 -- (--) -- (--) -- -- (--) -- (--) -- 0 0 0 --

Gráficas

Temp. máximas Temp. mínimas Temp. medias Precipitaciones Rachas de viento máximas Velocidades máximas media en intervalos de 10 minutos

Datos horarios

Fecha y hora oficial Temperatura (ºC) Velocidad del viento (km/h) Dirección del viento Racha (km/h) Dirección de racha Precipitación (mm) Presión (hPa) Tendencia (hPa) Humedad (%)
2020-01-25 23:00:00 1.7 3 Noroeste 7 Noroeste 0 -- -- 100
2020-01-25 22:00:00 3 6 Oeste 8 Oeste 0 -- -- 98
2020-01-25 21:00:00 5 4 Nordeste -- -- 0 -- -- 99
2020-01-25 20:00:00 5.2 0 Calma 6 Noroeste 0 -- -- 99
2020-01-25 19:00:00 5.6 2 Sudeste 3 Sur 0.4 -- -- 97
2020-01-25 18:00:00 6.3 0 Calma 9 Este 0 -- -- 93
2020-01-25 17:00:00 6.7 5 Sudeste 13 Sudeste 0.2 -- -- 90
2020-01-25 16:00:00 7.5 6 Este 14 Este 0 -- -- 84
2020-01-25 15:00:00 7.6 8 Este 17 Este 0 -- -- 83
2020-01-25 14:00:00 7.3 6 Este 15 Este 0 -- -- 87
2020-01-25 13:00:00 6.8 7 Este 16 Este 0 -- -- 90
2020-01-25 12:00:00 5.8 8 Este 18 Este 0 -- -- 94
2020-01-25 11:00:00 4.2 8 Este 14 Este 0.2 -- -- 98
2020-01-25 10:00:00 3.5 6 Nordeste 13 Nordeste 0 -- -- 100
2020-01-25 09:00:00 3 6 Nordeste 14 Este 0 -- -- 100
2020-01-25 08:00:00 2.8 6 Nordeste 18 Este 0 -- -- 100
2020-01-25 07:00:00 2.3 5 Nordeste 9 Nordeste 0 -- -- 100
2020-01-25 06:00:00 0.4 4 Norte 5 Nordeste 0 -- -- 100
2020-01-25 05:00:00 1 3 Nordeste 5 Nordeste 0 -- -- 100
2020-01-25 04:00:00 2.3 3 Norte 5 Norte 0 -- -- 100
2020-01-25 03:00:00 2.2 0 Calma 4 Noroeste 0 -- -- 100
2020-01-25 02:00:00 3.5 0 Calma 5 Este 0 -- -- 100
2020-01-25 01:00:00 3.2 2 Este 5 Sudeste 0 -- -- 100
2020-01-25 00:00:00 2.9 0 Calma 4 Nordeste 0 -- -- 100
2020-01-24 23:00:00 3.9 3 Norte 6 Nordeste 0 -- -- 100
2020-01-24 22:00:00 3.8 0 Calma 5 Noroeste 0 -- -- 100
2020-01-24 21:00:00 5 3 Norte 4 Norte 0 -- -- 99
2020-01-24 20:00:00 5.4 0 Calma 6 Oeste 0 -- -- 98
2020-01-24 19:00:00 5.8 4 Sudoeste 7 Sur 0.2 -- -- 96
2020-01-24 18:00:00 6.3 3 Sur 7 Sudeste 0 -- -- 91
2020-01-24 17:00:00 6.7 6 Sur 17 Sur 0 -- -- 90
2020-01-24 16:00:00 8 10 Sur 15 Sur 0 -- -- 81
2020-01-24 15:00:00 8.8 3 Sudeste 6 Sudeste 0 -- -- 77
2020-01-24 14:00:00 7.3 3 Sudeste 9 Sudeste 0 -- -- 81
2020-01-24 13:00:00 7.5 4 Este 9 Este 0 -- -- 83
2020-01-24 12:00:00 6.8 5 Este 13 Este 0 -- -- 84
2020-01-24 11:00:00 5 7 Este 13 Nordeste 0 -- -- 91
2020-01-24 10:00:00 3.2 5 Nordeste 10 Este 0 -- -- 96
2020-01-24 09:00:00 1.8 4 Norte 8 Este 0 -- -- 98
2020-01-24 08:00:00 2.7 4 Nordeste 10 Este 0 -- -- 96
2020-01-24 07:00:00 3 5 Nordeste 9 Nordeste 0 -- -- 95
2020-01-24 06:00:00 3.1 3 Nordeste 6 Nordeste 0 -- -- 95
2020-01-24 05:00:00 3.2 3 Este 8 Este 0 -- -- 94
2020-01-24 04:00:00 3.4 4 Este 13 Este 0 -- -- 94
2020-01-24 03:00:00 3.6 5 Este 12 Nordeste 0 -- -- 95
2020-01-24 02:00:00 3.5 6 Este 13 Nordeste 0 -- -- 95
2020-01-24 01:00:00 3.6 5 Nordeste 10 Nordeste 0 -- -- 94
2020-01-24 00:00:00 3.5 4 Nordeste 8 Nordeste 0 -- -- 94
2020-01-23 23:00:00 1.6 3 Este 8 Este 0 -- -- 97
2020-01-23 22:00:00 1.3 2 Norte 9 Este 0 -- -- 96
2020-01-23 21:00:00 3.1 6 Nordeste 13 Nordeste 0 -- -- 93
2020-01-23 20:00:00 3.5 8 Nordeste 12 Nordeste 0 -- -- 91
2020-01-23 19:00:00 3 2 Nordeste 10 Este 0 -- -- 91
2020-01-23 18:00:00 6 3 Este 9 Sudeste 0 -- -- 83
2020-01-23 17:00:00 7.6 6 Sudeste 14 Este 0 -- -- 77
2020-01-23 16:00:00 7.7 8 Este 20 Este 0 -- -- 76
2020-01-23 15:00:00 7.5 10 Nordeste 19 Nordeste 0 -- -- 78
2020-01-23 14:00:00 6.5 9 Este 22 Este 0 -- -- 82
2020-01-23 13:00:00 5.6 9 Este 24 Nordeste 0 -- -- 87
2020-01-23 12:00:00 3 9 Este 19 Nordeste 0 -- -- 97
2020-01-23 11:00:00 0.4 11 Nordeste 22 Este 0 -- -- 99
2020-01-23 10:00:00 0.7 9 Nordeste 17 Nordeste 0 -- -- 95
2020-01-23 09:00:00 0 9 Nordeste 22 Este 0 -- -- 98
2020-01-23 08:00:00 -0.2 10 Nordeste 18 Nordeste 0 -- -- 98
2020-01-23 07:00:00 0.3 8 Este 19 Nordeste 0 -- -- 97
2020-01-23 06:00:00 0.4 9 Nordeste 14 Nordeste 0 -- -- 98
2020-01-23 05:00:00 0.4 7 Nordeste 16 Nordeste 0 -- -- 98
2020-01-23 04:00:00 0.8 8 Este 19 Este 0 -- -- 97
2020-01-23 03:00:00 1.1 10 Nordeste 18 Este 0 -- -- 98
2020-01-23 02:00:00 1.1 7 Nordeste 18 Nordeste 0 -- -- 98
2020-01-23 01:00:00 1.7 10 Nordeste 21 Nordeste 0 -- -- 96
2020-01-23 00:00:00 2.4 10 Nordeste 24 Este 0 -- -- 95
2020-01-22 23:00:00 2.4 11 Nordeste 18 Nordeste 0 -- -- 96
2020-01-22 22:00:00 2.3 8 Nordeste 19 Nordeste 0 -- -- 94
2020-01-22 21:00:00 3.1 10 Nordeste 20 Este 0 -- -- 91
2020-01-22 20:00:00 3.8 8 Nordeste 22 Este 0 -- -- 91
2020-01-22 19:00:00 5.4 12 Este 22 Nordeste 0 -- -- 84
2020-01-22 18:00:00 7.5 9 Nordeste 22 Nordeste 0 -- -- 72
2020-01-22 17:00:00 9.2 11 Nordeste 27 Este 0 -- -- 66
2020-01-22 16:00:00 9.7 12 Este 31 Este 0 -- -- 64
2020-01-22 15:00:00 8.6 14 Este 30 Este 0 -- -- 67
2020-01-22 14:00:00 8.7 14 Este 32 Este 0 -- -- 71
2020-01-22 13:00:00 7.9 15 Este 38 Nordeste 0 -- -- 75
2020-01-22 12:00:00 7.4 19 Nordeste 39 Este 0 -- -- 77
2020-01-22 11:00:00 6.4 21 Nordeste 40 Este 0 -- -- 81
2020-01-22 10:00:00 5.3 14 Nordeste 30 Este 0 -- -- 87
2020-01-22 09:00:00 3.9 14 Nordeste 32 Este 0 -- -- 94
2020-01-22 08:00:00 4 14 Nordeste 27 Este 0 -- -- 93
2020-01-22 07:00:00 3.8 13 Nordeste 30 Nordeste 0 -- -- 94
2020-01-22 06:00:00 4 18 Nordeste 43 Nordeste 0.2 -- -- 94
2020-01-22 05:00:00 3.9 14 Nordeste 45 Este 0 -- -- 91
2020-01-22 04:00:00 4.2 18 Nordeste 40 Nordeste 0 -- -- 90
2020-01-22 03:00:00 3.4 19 Nordeste 36 Nordeste 0 -- -- 91
2020-01-22 02:00:00 3.6 19 Nordeste 40 Nordeste 0 -- -- 89
2020-01-22 01:00:00 3.3 23 Nordeste 44 Nordeste 0 -- -- 89
2020-01-22 00:00:00 3.1 19 Nordeste 44 Nordeste 0 -- -- 89
2020-01-21 23:00:00 2.7 24 Nordeste 44 Nordeste 0 -- -- 87
2020-01-21 22:00:00 3.4 19 Nordeste 39 Nordeste 0 -- -- 82
2020-01-21 21:00:00 3.1 18 Nordeste 41 Nordeste 0 -- -- 85
2020-01-21 20:00:00 3.2 25 Nordeste 43 Nordeste 0 -- -- 86
2020-01-21 19:00:00 3.1 21 Nordeste 44 Nordeste 0 -- -- 84
2020-01-21 18:00:00 2.9 23 Nordeste 52 Nordeste 0 -- -- 88
2020-01-21 17:00:00 3.4 26 Nordeste 69 Nordeste 0 -- -- 83
2020-01-21 16:00:00 4.7 28 Nordeste 61 Nordeste 0 -- -- 77
2020-01-21 15:00:00 4.6 30 Nordeste 57 Este 0 -- -- 76
2020-01-21 14:00:00 5.3 34 Nordeste 59 Este 0 -- -- 71
2020-01-21 13:00:00 4.9 32 Nordeste 60 Nordeste 0 -- -- 70
2020-01-21 12:00:00 3 30 Nordeste 62 Nordeste 0 -- -- 81
2020-01-21 11:00:00 3.3 29 Nordeste 58 Nordeste 0 -- -- 73
2020-01-21 10:00:00 2.6 32 Nordeste 55 Nordeste 0 -- -- 76
2020-01-21 09:00:00 1.3 26 Nordeste 52 Nordeste 0 -- -- 80
2020-01-21 08:00:00 1.1 25 Nordeste 49 Nordeste 0 -- -- 80
2020-01-21 07:00:00 0.7 22 Nordeste 47 Nordeste 0 -- -- 81
2020-01-21 06:00:00 0.8 23 Nordeste 54 Nordeste 0 -- -- 79
2020-01-21 05:00:00 0.6 19 Nordeste 36 Este 0 -- -- 81
2020-01-21 04:00:00 0.3 15 Nordeste 50 Nordeste 0 -- -- 84
2020-01-21 03:00:00 0.8 23 Nordeste 47 Nordeste 0 -- -- 83
2020-01-21 02:00:00 0.6 24 Nordeste 44 Este 0 -- -- 86
2020-01-21 01:00:00 0.6 26 Nordeste 49 Nordeste 0 -- -- 85
2020-01-21 00:00:00 0.3 19 Nordeste 42 Este 0 -- -- 85
2020-01-20 23:00:00 0.2 23 Nordeste 46 Nordeste 0 -- -- 83
2020-01-20 22:00:00 0.6 23 Nordeste 45 Nordeste 0 -- -- 82
2020-01-20 21:00:00 0.7 21 Nordeste 50 Nordeste 0 -- -- 77
2020-01-20 20:00:00 0.8 23 Nordeste 45 Nordeste 0 -- -- 75
2020-01-20 19:00:00 1 27 Nordeste 53 Nordeste 0 -- -- 73
2020-01-20 18:00:00 1.6 28 Nordeste 50 Nordeste 0 -- -- 70
2020-01-20 17:00:00 1.7 24 Nordeste 59 Nordeste 0 -- -- 68
2020-01-20 16:00:00 2.1 32 Nordeste 55 Nordeste 0 -- -- 66
2020-01-20 15:00:00 2.2 28 Nordeste 52 Este 0 -- -- 65
2020-01-20 14:00:00 1.9 27 Nordeste 54 Nordeste 0 -- -- 63
2020-01-20 13:00:00 2.4 31 Nordeste 63 Nordeste 0 -- -- 62
2020-01-20 12:00:00 2.3 31 Nordeste 81 Nordeste 0 -- -- 61
2020-01-20 11:00:00 1.9 32 Nordeste 60 Nordeste 0 -- -- 63
2020-01-20 10:00:00 1 31 Nordeste 60 Nordeste 0 -- -- 66
2020-01-20 09:00:00 -0.1 22 Nordeste 41 Nordeste 0 -- -- 74
2020-01-20 08:00:00 -0.1 21 Nordeste 44 Nordeste 0 -- -- 72
2020-01-20 07:00:00 -0.1 21 Nordeste 45 Nordeste 0 -- -- 73
2020-01-20 06:00:00 0.1 24 Nordeste 51 Nordeste 0 -- -- 73
2020-01-20 05:00:00 0.1 31 Nordeste 50 Nordeste 0 -- -- 73
2020-01-20 04:00:00 0.2 21 Nordeste 47 Nordeste 0 -- -- 73
2020-01-20 03:00:00 0.5 27 Nordeste 47 Nordeste 0 -- -- 73
2020-01-20 02:00:00 0.3 23 Nordeste 49 Nordeste 0 -- -- 77
2020-01-20 01:00:00 0.4 25 Nordeste 41 Nordeste 0 -- -- 77
2020-01-20 00:00:00 0.4 16 Nordeste 28 Nordeste 0 -- -- 77
2020-01-19 23:00:00 1.2 12 Nordeste 62 Nordeste 0 -- -- 68
2020-01-19 22:00:00 1.6 32 Nordeste 51 Nordeste 0 -- -- 68
2020-01-19 21:00:00 1.3 25 Nordeste 45 Nordeste 0 -- -- 70
2020-01-19 20:00:00 1.8 29 Nordeste 51 Nordeste 0 -- -- 62
2020-01-19 19:00:00 1.9 25 Nordeste 57 Nordeste 0 -- -- 61
2020-01-19 18:00:00 3.3 36 Nordeste 71 Nordeste 0 -- -- 57
2020-01-19 17:00:00 5 36 Nordeste 69 Nordeste 0 -- -- 52
2020-01-19 16:00:00 6 40 Nordeste 74 Nordeste 0 -- -- 51
2020-01-19 15:00:00 6.7 41 Nordeste 63 Nordeste 0 -- -- 50
2020-01-19 14:00:00 7.2 42 Nordeste 70 Nordeste 0 -- -- 46
2020-01-19 13:00:00 6.9 40 Nordeste 65 Nordeste 0 -- -- 57
2020-01-19 12:00:00 6.5 30 Nordeste 57 Nordeste 0 -- -- 60
2020-01-19 11:00:00 5.9 29 Nordeste 50 Nordeste 0 -- -- 58
2020-01-19 10:00:00 4.9 21 Nordeste 40 Nordeste 0 -- -- 78
2020-01-19 09:00:00 4.3 22 Nordeste 36 Nordeste 0 -- -- 79
2020-01-19 08:00:00 3.4 19 Norte 28 Nordeste 0 -- -- 89
2020-01-19 07:00:00 1.2 12 Norte 18 Norte 0 -- -- 97
2020-01-19 06:00:00 1.1 8 Norte 14 Norte 0 -- -- 98
2020-01-19 05:00:00 0.9 4 Norte 13 Norte 0 -- -- 98
2020-01-19 04:00:00 0.7 6 Norte 16 Norte 0 -- -- 97
2020-01-19 03:00:00 1 10 Norte 15 Norte 0 -- -- 98
2020-01-19 02:00:00 1.5 9 Norte 19 Noroeste 0 -- -- 98
2020-01-19 01:00:00 2.1 15 Noroeste 20 Noroeste 0 -- -- 95
2020-01-19 00:00:00 3.4 13 Noroeste 28 Oeste 0 -- -- 92
2020-01-18 23:00:00 3.2 14 Oeste 19 Oeste 0 -- -- 93
2020-01-18 22:00:00 2.6 9 Sudoeste 36 Oeste 0 -- -- 95
2020-01-18 21:00:00 4.7 25 Oeste 33 Noroeste 0 -- -- 84
2020-01-18 20:00:00 5 19 Noroeste 36 Noroeste 0 -- -- 83
2020-01-18 19:00:00 6.1 26 Noroeste 42 Noroeste 0.2 -- -- 87
2020-01-18 18:00:00 7.1 27 Noroeste 59 Noroeste 3.6 -- -- 95
2020-01-18 17:00:00 9.8 31 Sudoeste 54 Sudoeste 0 -- -- 95
2020-01-18 16:00:00 9.9 43 Sudoeste 65 Sudoeste 0 -- -- 95
2020-01-18 15:00:00 9.2 40 Sudoeste 58 Sudoeste 0 -- -- 99
2020-01-18 14:00:00 7.9 27 Sudoeste 39 Sudoeste 0.2 -- -- 100
2020-01-18 13:00:00 7 13 Sur 28 Sur 0 -- -- 100
2020-01-18 12:00:00 6.3 14 Sur 25 Sur 0 -- -- 100
2020-01-18 11:00:00 5.6 12 Sur 18 Sur 0 -- -- 99
2020-01-18 10:00:00 4.5 6 Sudeste 9 Sudeste 0.2 -- -- 98
2020-01-18 09:00:00 3.7 4 Sudeste 11 Sur 0 -- -- 99
2020-01-18 08:00:00 3.6 5 Sur 8 Sudeste 0 -- -- 95
2020-01-18 07:00:00 3.3 6 Sudeste 12 Sudeste 0 -- -- 96
2020-01-18 06:00:00 3.1 5 Este 9 Este 0 -- -- 95
2020-01-18 05:00:00 2.7 4 Sudeste 10 Este 0 -- -- 97
2020-01-18 04:00:00 2.5 0 Calma 5 Nordeste 0 -- -- 98
2020-01-18 03:00:00 2.3 0 Calma 5 Sudoeste 0 -- -- 98
2020-01-18 02:00:00 2.4 0 Calma 3 Sudoeste 0 -- -- 98
2020-01-18 01:00:00 2.5 3 Sudeste 6 Sur 0 -- -- 95
2020-01-18 00:00:00 3.2 0 Calma 12 Oeste 0 -- -- 92
2020-01-17 23:00:00 3.3 4 Noroeste 8 Oeste 0 -- -- 93
2020-01-17 22:00:00 3.4 0 Calma 14 Oeste 0 -- -- 90
2020-01-17 21:00:00 4.2 14 Sudoeste 17 Oeste 0 -- -- 87
2020-01-17 20:00:00 3.9 13 Oeste 15 Oeste 0 -- -- 88
2020-01-17 19:00:00 4.4 5 Sudoeste 13 Sudoeste 0 -- -- 87
2020-01-17 18:00:00 6.2 7 Sudoeste 15 Sudoeste 0 -- -- 83
2020-01-17 17:00:00 7.8 9 Oeste 21 Oeste 0 -- -- 68
2020-01-17 16:00:00 8.3 12 Oeste 22 Oeste 0 -- -- 70
2020-01-17 15:00:00 8 14 Oeste 29 Oeste 0 -- -- 69
2020-01-17 14:00:00 8.3 15 Noroeste 28 Oeste 0 -- -- 70
2020-01-17 13:00:00 8.1 22 Oeste 42 Oeste 0 -- -- 72
2020-01-17 12:00:00 7.1 27 Oeste 42 Oeste 0 -- -- 80
2020-01-17 11:00:00 6.2 23 Oeste 28 Oeste 0 -- -- 91
2020-01-17 10:00:00 4.4 17 Oeste 29 Sudoeste 0 -- -- 96
2020-01-17 09:00:00 4 18 Sudoeste 32 Sudoeste 0 -- -- 100
2020-01-17 08:00:00 5.2 21 Sudoeste 36 Sudoeste 0 -- -- 99
2020-01-17 07:00:00 5.5 24 Sudoeste 34 Sudoeste 0 -- -- 100
2020-01-17 06:00:00 5 21 Sudoeste 41 Sudoeste 0.2 -- -- 99
2020-01-17 05:00:00 6.1 30 Sudoeste 52 Sudoeste 0 -- -- 97
2020-01-17 04:00:00 5.8 23 Sudoeste 38 Sudoeste 0 -- -- 97
2020-01-17 03:00:00 5.4 27 Sudoeste 39 Sudoeste 0 -- -- 99
2020-01-17 02:00:00 5.1 19 Sudoeste 26 Sudoeste 0 -- -- 99
2020-01-17 01:00:00 5.2 13 Sudoeste 28 Sudoeste 0 -- -- 99
2020-01-17 00:00:00 6.2 19 Sudoeste 55 Sudoeste 0 -- -- 97
2020-01-16 23:00:00 7.3 33 Sudoeste 53 Sudoeste 0 -- -- 92
2020-01-16 22:00:00 7.9 30 Sudoeste 46 Sudoeste 0 -- -- 84
2020-01-16 21:00:00 8.1 21 Sudoeste 36 Sudoeste 0 -- -- 83
2020-01-16 20:00:00 8.3 21 Sudoeste 29 Sudoeste 0 -- -- 80
2020-01-16 19:00:00 8.6 16 Sur 28 Sudoeste 0 -- -- 76
2020-01-16 18:00:00 9 18 Sudoeste 34 Sudoeste 0 -- -- 70
2020-01-16 17:00:00 10 14 Sur 47 Sudoeste 0 -- -- 70
2020-01-16 16:00:00 11.2 32 Sudoeste 47 Sudoeste 0 -- -- 65
2020-01-16 15:00:00 11.7 24 Sudoeste 51 Sudoeste 0 -- -- 67
2020-01-16 14:00:00 11.5 31 Sudoeste 49 Sudoeste 0 -- -- 72
2020-01-16 13:00:00 11.9 31 Sudoeste 48 Sudoeste 0 -- -- 75
2020-01-16 12:00:00 10.5 28 Sudoeste 42 Sudoeste 0 -- -- 86
2020-01-16 11:00:00 9.1 15 Sur 30 Sur 0 -- -- 92
2020-01-16 10:00:00 8.5 8 Sur 15 Sur 0 -- -- 93
2020-01-16 09:00:00 6.7 6 Sur 14 Sur 0 -- -- 97
2020-01-16 08:00:00 6.8 11 Sudoeste 24 Sudoeste 0 -- -- 97
2020-01-16 07:00:00 7.1 17 Sudoeste 27 Sudoeste 0 -- -- 96
2020-01-16 06:00:00 7.2 10 Sur 17 Sur 0 -- -- 97
2020-01-16 05:00:00 7.8 11 Sur 26 Sudoeste 0 -- -- 94
2020-01-16 04:00:00 7.9 14 Sur 23 Sur 0 -- -- 96
2020-01-16 03:00:00 7.3 11 Sur 17 Sur 0 -- -- 97
2020-01-16 02:00:00 8.2 10 Sur 22 Sur 0 -- -- 96
2020-01-16 01:00:00 7.8 10 Sur 17 Sur 0 -- -- 100
2020-01-16 00:00:00 7.7 10 Sur 18 Sur 0.2 -- -- 98
2020-01-15 23:00:00 7.3 10 Sudoeste 17 Sur 0 -- -- 99
2020-01-15 22:00:00 7.6 9 Sur 24 Sur 0 -- -- 97
2020-01-15 21:00:00 7.7 13 Sudoeste 19 Sur 0 -- -- 98
2020-01-15 20:00:00 6.7 7 Sur 12 Sur 0 -- -- 99
2020-01-15 19:00:00 7 7 Sur 21 Sudoeste 0 -- -- 97
2020-01-15 18:00:00 9.4 17 Sudoeste 40 Sudoeste 0 -- -- 89
2020-01-15 17:00:00 11.3 25 Sudoeste 35 Sudoeste 0 -- -- 81
2020-01-15 16:00:00 11.6 21 Sudoeste 36 Sudoeste 0 -- -- 82
2020-01-15 15:00:00 10.1 27 Sudoeste 41 Sudoeste 0 -- -- 83
2020-01-15 14:00:00 9.1 21 Sudoeste 41 Sudoeste 0 -- -- 88
2020-01-15 13:00:00 8.5 26 Sudoeste 34 Sudoeste 0 -- -- 89
2020-01-15 12:00:00 7.4 20 Sudoeste 53 Sudoeste 0 -- -- 94
2020-01-15 11:00:00 6.7 31 Sudoeste 48 Sudoeste 0 -- -- 96
2020-01-15 10:00:00 6.9 22 Sudoeste 37 Sudoeste 0 -- -- 90
2020-01-15 09:00:00 6.7 17 Sur 36 Sudoeste 0 -- -- 89
2020-01-15 08:00:00 6.8 17 Sudoeste 32 Sur 0 -- -- 89
2020-01-15 07:00:00 6.4 18 Sudoeste 36 Sudoeste 0 -- -- 89
2020-01-15 06:00:00 6.5 23 Sur 42 Sudoeste 0 -- -- 89
2020-01-15 05:00:00 6.1 19 Sur 36 Sudoeste 0 -- -- 92
2020-01-15 04:00:00 6.5 19 Sur 38 Sur 0 -- -- 90
2020-01-15 03:00:00 6.6 20 Sudoeste 44 Sudoeste 0 -- -- 91
2020-01-15 02:00:00 6.4 25 Sudoeste 39 Sur 0 -- -- 92
2020-01-15 01:00:00 6.3 26 Sudoeste 37 Sudoeste 0 -- -- 94
2020-01-15 00:00:00 6 17 Sur 32 Sur 0 -- -- 93
2020-01-14 23:00:00 5.6 13 Sur 28 Sur 0 -- -- 93
2020-01-14 22:00:00 5.4 16 Sudoeste 29 Sudoeste 0 -- -- 93
2020-01-14 21:00:00 5.7 14 Sur 25 Sur 0 -- -- 89
2020-01-14 20:00:00 6.2 14 Sudoeste 28 Sudoeste 0 -- -- 89
2020-01-14 19:00:00 6.5 16 Sudoeste 31 Sudoeste 0 -- -- 87
2020-01-14 18:00:00 6.7 19 Sudoeste 31 Sudoeste 0 -- -- 87
2020-01-14 17:00:00 7.8 14 Sur 30 Sur 0 -- -- 82
2020-01-14 16:00:00 8.5 17 Sur 36 Sur 0 -- -- 76
2020-01-14 15:00:00 7.4 20 Sur 41 Sudoeste 0 -- -- 82
2020-01-14 14:00:00 7.5 27 Sudoeste 38 Sudoeste 0 -- -- 85
2020-01-14 13:00:00 6.7 19 Sudoeste 30 Sudoeste 0 -- -- 86
2020-01-14 12:00:00 4.8 14 Sudoeste 23 Sudoeste 0 -- -- 89
2020-01-14 11:00:00 3.7 10 Sur 24 Sudoeste 0 -- -- 91
2020-01-14 10:00:00 2.1 14 Sur 24 Sudoeste 0 -- -- 95
2020-01-14 09:00:00 1.6 6 Sudeste 14 Sur 0 -- -- 97
2020-01-14 08:00:00 2.5 8 Sudeste 22 Sudoeste 0 -- -- 96
2020-01-14 07:00:00 2.5 14 Sudoeste 24 Sudoeste 0 -- -- 97
2020-01-14 06:00:00 2.8 14 Sudoeste 24 Sudoeste 0 -- -- 99
2020-01-14 05:00:00 2.9 12 Sudoeste 19 Sudoeste 0 -- -- 100
2020-01-14 04:00:00 2.8 15 Sudoeste 26 Sudoeste 0 -- -- 100
2020-01-14 03:00:00 2.4 21 Sudoeste 31 Sudoeste 0 -- -- 100
2020-01-14 02:00:00 2.1 18 Sudoeste 31 Sudoeste 0 -- -- 100
2020-01-14 01:00:00 1 21 Sudoeste 27 Sudoeste 0 -- -- 100
2020-01-14 00:00:00 -0.5 8 Sur 15 Sur 0 -- -- 100
2020-01-13 23:00:00 -0.8 5 Sudeste 7 Sudeste 0 -- -- 100
2020-01-13 22:00:00 -0.4 2 Sudeste 5 Nordeste 0 -- -- 100
2020-01-13 21:00:00 -0.2 4 Sudeste 9 Sudeste 0 -- -- 100
2020-01-13 20:00:00 -0.2 2 Nordeste 13 Sur 0 -- -- 100
2020-01-13 19:00:00 0.8 9 Sudoeste 16 Oeste 0 -- -- 100
2020-01-13 18:00:00 1.1 10 Sudoeste 21 Sudoeste 0 -- -- 100
2020-01-13 17:00:00 0.7 12 Sudoeste 21 Sudoeste 0 -- -- 100
2020-01-13 16:00:00 -0.1 14 Sudoeste 23 Sudoeste 0 -- -- 100
2020-01-13 15:00:00 -0.5 14 Sudoeste 21 Sudoeste 0 -- -- 100
2020-01-13 14:00:00 -1.2 8 Sur 15 Sudoeste 0 -- -- 100
2020-01-13 13:00:00 -2.1 6 Sudoeste 14 Sudoeste 0 -- -- 100
2020-01-13 12:00:00 -2.7 6 Oeste 13 Oeste 0 -- -- 100
2020-01-13 11:00:00 -2.6 3 Sur 7 Sudoeste 0 -- -- 100
2020-01-13 10:00:00 -3.1 5 Sur 10 Sur 0 -- -- 100
2020-01-13 09:00:00 -3.4 2 Noroeste 11 Noroeste 0 -- -- 100
2020-01-13 08:00:00 -3.1 7 Noroeste 11 Noroeste 0 -- -- 100
2020-01-13 07:00:00 -3.2 7 Sur 11 Sur 0 -- -- 100
2020-01-13 06:00:00 -3.3 2 Norte 8 Sudeste 0 -- -- 100
2020-01-13 05:00:00 -3 6 Sur 10 Sudeste 0 -- -- 100
2020-01-13 04:00:00 -3 5 Sudeste 10 Sudeste 0 -- -- 100
2020-01-13 03:00:00 -2.6 4 Este 9 Noroeste 0 -- -- 100
2020-01-13 02:00:00 -2.5 3 Noroeste 8 Noroeste 0 -- -- 100
2020-01-13 01:00:00 -2.4 4 Noroeste 7 Noroeste 0 -- -- 100
2020-01-13 00:00:00 -1.6 4 Noroeste 10 Noroeste 0 -- -- 100
2020-01-12 23:00:00 -1.6 3 Norte 8 Noroeste 0 -- -- 100
2020-01-12 22:00:00 -1.2 4 Noroeste 8 Noroeste 0 -- -- 100
2020-01-12 21:00:00 -1.6 4 Norte 8 Noroeste 0 -- -- 100
2020-01-12 20:00:00 -1.3 4 Norte 10 Noroeste 0 -- -- 100
2020-01-12 19:00:00 -0.5 6 Oeste 10 Noroeste 0 -- -- 100
2020-01-12 18:00:00 -0.2 3 Noroeste 6 Oeste 0 -- -- 100
2020-01-12 17:00:00 0.2 2 Oeste 6 Nordeste 0 -- -- 100
2020-01-12 16:00:00 0.2 4 Norte 12 Noroeste 0 -- -- 100
2020-01-12 15:00:00 0.1 3 Sudeste 8 Este 0 -- -- 100
2020-01-12 14:00:00 -0.6 0 Calma 6 Norte 0 -- -- 100
2020-01-12 13:00:00 -1.5 4 Nordeste 8 Este 0 -- -- 100
2020-01-12 12:00:00 -2.2 4 Este 9 Este 0 -- -- 100
2020-01-12 11:00:00 -2.5 4 Nordeste 10 Nordeste 0 -- -- 100
2020-01-12 10:00:00 -2.8 3 Este 9 Nordeste 0 -- -- 100
2020-01-12 09:00:00 -3.1 4 Este 10 Sudeste 0 -- -- 100
2020-01-12 08:00:00 -2.9 3 Sudeste 10 Este 0 -- -- 100
2020-01-12 07:00:00 -3.2 6 Sudeste 11 Sudeste 0 -- -- 100
2020-01-12 06:00:00 -3 4 Este 8 Sudeste 0 -- -- 100
2020-01-12 05:00:00 -3 4 Este 7 Sudeste 0 -- -- 100
2020-01-12 04:00:00 -3 0 Calma 6 Sudeste 0 -- -- 100
2020-01-12 03:00:00 -3.2 3 Sudeste 8 Sur 0 -- -- 100
2020-01-12 02:00:00 -3.1 4 Sur 7 Sudeste 0 -- -- 100
2020-01-12 01:00:00 -2.8 4 Sudoeste 8 Sudoeste 0 -- -- 100
2020-01-12 00:00:00 -1.7 5 Sudoeste 7 Sudoeste 0 -- -- 100
2020-01-11 23:00:00 -1.4 0 Calma 8 Sur 0 -- -- 100
2020-01-11 22:00:00 -1.2 2 Sur 8 Sudeste 0 -- -- 100
2020-01-11 21:00:00 0.1 3 Sur 12 Oeste 0 -- -- 100
2020-01-11 20:00:00 0.3 6 Sudoeste 16 Oeste 0 -- -- 100
2020-01-11 19:00:00 0.6 9 Oeste 10 Oeste 0 -- -- 97
2020-01-11 18:00:00 4.7 7 Oeste 11 Oeste 0 -- -- 86
2020-01-11 17:00:00 8.3 5 Oeste 9 Sudoeste 0 -- -- 70
2020-01-11 16:00:00 9.1 5 Sudoeste 10 Sudoeste 0 -- -- 68
2020-01-11 15:00:00 6.6 3 Noroeste 8 Sudeste 0 -- -- 75
2020-01-11 14:00:00 6.6 2 Sudeste 8 Sudeste 0 -- -- 73
2020-01-11 13:00:00 6.4 4 Sur 9 Sudeste 0 -- -- 74
2020-01-11 12:00:00 5 4 Nordeste 13 Nordeste 0 -- -- 80
2020-01-11 11:00:00 3.7 5 Nordeste 10 Este 0 -- -- 84
2020-01-11 10:00:00 0.8 5 Norte 8 Norte 0 -- -- 93
2020-01-11 09:00:00 -2.1 5 Norte 9 Norte 0 -- -- 99
2020-01-11 08:00:00 -2.2 3 Norte 8 Nordeste 0 -- -- 99
2020-01-11 07:00:00 -2.3 6 Nordeste 10 Norte 0 -- -- 99
2020-01-11 06:00:00 -2.6 5 Norte 8 Norte 0 -- -- 100
2020-01-11 05:00:00 -3.1 3 Oeste 8 Noroeste 0 -- -- 100
2020-01-11 04:00:00 -2.8 4 Noroeste 10 Noroeste 0 -- -- 99
2020-01-11 03:00:00 -2 3 Norte 6 Sudoeste 0 -- -- 99
2020-01-11 02:00:00 -0.1 6 Nordeste 10 Norte 0 -- -- 98
2020-01-11 01:00:00 0.6 3 Norte 14 Nordeste 0 -- -- 97
2020-01-11 00:00:00 0.7 2 Sudeste 14 Este 0 -- -- 96
2020-01-10 23:00:00 0.8 6 Este 17 Nordeste 0 -- -- 99
2020-01-10 22:00:00 2.4 9 Nordeste 16 Este 0 -- -- 92
2020-01-10 21:00:00 2.8 9 Este 16 Este 0 -- -- 88
2020-01-10 20:00:00 1.2 3 Este 7 Este 0 -- -- 93
2020-01-10 19:00:00 1.9 0 Calma 6 Sur 0 -- -- 89
2020-01-10 18:00:00 7.1 4 Sur 7 Sudeste 0 -- -- 68
2020-01-10 17:00:00 9.5 5 Sudeste 10 Sudeste 0 -- -- 60
2020-01-10 16:00:00 9.6 5 Sudeste 12 Sudeste 0 -- -- 58
2020-01-10 15:00:00 8.5 5 Sudeste 13 Nordeste 0 -- -- 62
2020-01-10 14:00:00 7.9 6 Nordeste 15 Norte 0 -- -- 65
2020-01-10 13:00:00 6.9 7 Nordeste 13 Norte 0 -- -- 68
2020-01-10 12:00:00 6.2 7 Norte 10 Norte 0 -- -- 65
2020-01-10 11:00:00 4.6 6 Nordeste 12 Nordeste 0 -- -- 75
2020-01-10 10:00:00 3.1 4 Nordeste 15 Norte 0 -- -- 83
2020-01-10 09:00:00 0.8 9 Norte 19 Noroeste 0 -- -- 93
2020-01-10 08:00:00 0.6 10 Noroeste 17 Norte 0 -- -- 95
2020-01-10 07:00:00 -0.1 10 Norte 14 Noroeste 0 -- -- 98
2020-01-10 06:00:00 0.2 8 Noroeste 18 Noroeste 0 -- -- 97
2020-01-10 05:00:00 0.5 12 Noroeste 18 Noroeste 0 -- -- 95
2020-01-10 04:00:00 1.1 14 Noroeste 20 Noroeste 0 -- -- 92
2020-01-10 03:00:00 1.9 22 Noroeste 31 Oeste 0 -- -- 90
2020-01-10 02:00:00 1.1 17 Oeste 31 Noroeste 0 -- -- 93
2020-01-10 01:00:00 1 15 Noroeste 27 Noroeste 0 -- -- 94
2020-01-10 00:00:00 2.6 17 Noroeste 25 Oeste 0 -- -- 88
2020-01-09 23:00:00 3.4 19 Oeste 46 Oeste 0 -- -- 85
2020-01-09 22:00:00 4.4 24 Oeste 34 Oeste 0 -- -- 83
2020-01-09 21:00:00 4.3 14 Oeste 24 Oeste 0 -- -- 90
2020-01-09 20:00:00 6 16 Noroeste 25 Noroeste 0 -- -- 91
2020-01-09 19:00:00 7.9 13 Oeste 35 Oeste 0 -- -- 97
2020-01-09 18:00:00 8.2 24 Oeste 41 Sudoeste 0 -- -- 97
2020-01-09 17:00:00 8.7 27 Sudoeste 46 Sudoeste 0 -- -- 98
2020-01-09 16:00:00 8.5 32 Sudoeste 46 Sudoeste 0 -- -- 97
2020-01-09 15:00:00 8.4 22 Sudoeste 35 Sudoeste 0 -- -- 100
2020-01-09 14:00:00 6.3 21 Sudoeste 29 Sudoeste 0 -- -- 100
2020-01-09 13:00:00 4.8 17 Sudoeste 24 Sur 0 -- -- 100
2020-01-09 12:00:00 2.7 16 Sudoeste 21 Sudoeste 0 -- -- 100
2020-01-09 11:00:00 3.7 7 Sur 10 Sur 0 -- -- 89
2020-01-09 10:00:00 0.7 0 Calma 7 Sudeste 0 -- -- 100
2020-01-09 09:00:00 -1.5 0 Calma 8 Oeste 0 -- -- 100
2020-01-09 08:00:00 -1.7 2 Sudoeste 10 Noroeste 0 -- -- 100
2020-01-09 07:00:00 -1 0 Calma 6 Oeste 0 -- -- 100
2020-01-09 06:00:00 -1.4 3 Norte 8 Este 0 -- -- 100
2020-01-09 05:00:00 -1 2 Este 4 Sudeste 0 -- -- 100
2020-01-09 04:00:00 -1 3 Norte 5 Norte 0 -- -- 100
2020-01-09 03:00:00 -0.5 3 Sudoeste 5 Oeste 0 -- -- 100
2020-01-09 02:00:00 0 3 Oeste 4 Oeste 0 -- -- 100
2020-01-09 01:00:00 -0.2 3 Sudoeste 4 Sudoeste 0 -- -- 100
2020-01-09 00:00:00 -0.1 2 Sudoeste 6 Sudeste 0 -- -- 99
2020-01-08 23:00:00 1.2 0 Calma 6 Oeste 0 -- -- 98
2020-01-08 22:00:00 1.5 3 Noroeste 5 Noroeste 0 -- -- 98
2020-01-08 21:00:00 1.9 4 Oeste 9 Sudoeste 0 -- -- 100
2020-01-08 20:00:00 3 5 Sudoeste 8 Sudoeste 0 -- -- 99
2020-01-08 19:00:00 3.7 5 Sudoeste 10 Sudoeste 0 -- -- 99
2020-01-08 18:00:00 6.4 8 Sudoeste 10 Oeste 0 -- -- 91
2020-01-08 17:00:00 8.3 7 Oeste 17 Oeste 0 -- -- 83
2020-01-08 16:00:00 7.6 11 Oeste 14 Oeste 0 -- -- 82
2020-01-08 15:00:00 7.6 7 Oeste 11 Oeste 0 -- -- 89
2020-01-08 14:00:00 5.8 8 Oeste 12 Oeste 0 -- -- 100
2020-01-08 13:00:00 3.4 2 Sudoeste 8 Sudeste 0 -- -- 99
2020-01-08 12:00:00 2.4 5 Sudeste 9 Sudeste 0 -- -- 100
2020-01-08 11:00:00 -0.3 3 Noroeste 5 Oeste 0 -- -- 100
2020-01-08 10:00:00 -1.9 0 Calma 4 Oeste 0 -- -- 100
2020-01-08 09:00:00 -3.2 3 Sudeste 5 Sur 0 -- -- 100
2020-01-08 08:00:00 -3.1 3 Nordeste 5 Norte 0 -- -- 100
2020-01-08 07:00:00 -2.9 4 Norte 5 Noroeste 0 -- -- 100
2020-01-08 06:00:00 -2.5 3 Norte 8 Norte 0 -- -- 100
2020-01-08 05:00:00 -2.7 5 Norte 9 Noroeste 0 -- -- 100
2020-01-08 04:00:00 -2.9 0 Calma 5 Norte 0 -- -- 100
2020-01-08 03:00:00 -2.5 0 Calma 5 Este 0 -- -- 100
2020-01-08 02:00:00 -2.4 3 Sudeste 10 Sudeste 0 -- -- 100
2020-01-08 01:00:00 -1.9 5 Sudeste 8 Sudeste 0 -- -- 100
2020-01-08 00:00:00 -1.5 3 Sudeste 7 Sudeste 0 -- -- 100
2020-01-07 23:00:00 -1.5 3 Sudeste 6 Sudeste 0 -- -- 100
2020-01-07 22:00:00 -1.4 2 Sur 7 Sudeste 0 -- -- 100
2020-01-07 21:00:00 -1.2 2 Nordeste 7 Norte 0 -- -- 100
2020-01-07 20:00:00 -0.5 3 Noroeste 6 Noroeste 0 -- -- 100
2020-01-07 19:00:00 -0.2 3 Sudoeste 6 Sudoeste 0 -- -- 100
2020-01-07 18:00:00 0.3 2 Noroeste 6 Noroeste 0 -- -- 100
2020-01-07 17:00:00 0.7 3 Sudoeste 6 Sudoeste 0 -- -- 100
2020-01-07 16:00:00 0.9 4 Sudeste 10 Sudoeste 0 -- -- 100
2020-01-07 15:00:00 -0.1 5 Oeste 8 Oeste 0 -- -- 100
2020-01-07 14:00:00 -0.7 4 Sudoeste 10 Sur 0 -- -- 100
2020-01-07 13:00:00 -0.9 5 Sur 8 Noroeste 0 -- -- 100
2020-01-07 12:00:00 -2.1 5 Oeste 8 Noroeste 0 -- -- 100
2020-01-07 11:00:00 -2.6 2 Nordeste 5 Nordeste 0 -- -- 100
2020-01-07 10:00:00 -3 2 Nordeste 9 Sudeste 0 -- -- 100
2020-01-07 09:00:00 -2.7 4 Este 9 Sudeste 0 -- -- 100
2020-01-07 08:00:00 -2.7 3 Nordeste 6 Sudeste 0 -- -- 100
2020-01-07 07:00:00 -2.6 3 Norte 8 Norte 0 -- -- 100
2020-01-07 06:00:00 -2.4 3 Norte 7 Norte 0 -- -- 100
2020-01-07 05:00:00 -2.1 3 Nordeste 9 Norte 0 -- -- 100
2020-01-07 04:00:00 -2.1 5 Norte 10 Norte 0 -- -- 100
2020-01-07 03:00:00 -2 3 Norte 8 Norte 0 -- -- 100
2020-01-07 02:00:00 -1.7 2 Sur 9 Nordeste 0 -- -- 100
2020-01-07 01:00:00 -1.7 3 Este 10 Nordeste 0 -- -- 100
2020-01-07 00:00:00 -1.3 3 Nordeste 8 Nordeste 0 -- -- 100
2020-01-06 23:00:00 -1.2 3 Este 11 Sudeste 0 -- -- 100
2020-01-06 22:00:00 -0.9 4 Nordeste 8 Nordeste 0 -- -- 100
2020-01-06 21:00:00 -0.7 2 Este 9 Nordeste 0 -- -- 100
2020-01-06 20:00:00 -0.7 2 Este 10 Nordeste 0 -- -- 100
2020-01-06 19:00:00 -0.4 3 Este 9 Noroeste 0 -- -- 100
2020-01-06 18:00:00 -0.3 7 Norte 10 Norte 0 -- -- 100
2020-01-06 17:00:00 -0.3 3 Oeste 6 Sudeste 0 -- -- 100
2020-01-06 16:00:00 -0.4 3 Oeste 9 Noroeste 0 -- -- 100
2020-01-06 15:00:00 -0.8 4 Sudoeste 8 Sudoeste 0 -- -- 100
2020-01-06 14:00:00 -1 2 Sur 10 Este 0 -- -- 100
2020-01-06 13:00:00 -1.7 3 Sur 8 Oeste 0 -- -- 100
2020-01-06 12:00:00 -1.9 5 Sudeste 10 Sudeste 0 -- -- 100
2020-01-06 11:00:00 -2.2 0 Calma 8 Noroeste 0 -- -- 100
2020-01-06 10:00:00 -2.4 0 Calma 5 Sudeste 0 -- -- 100